sensor_id;sensor_type;location;lat;lon;timestamp;temperature;humidity
30134;DHT22;16946;49.984;10.672;2022-07-18T00:00:05;15.50;99.90
30134;DHT22;16946;49.984;10.672;2022-07-18T00:00:37;15.50;99.90
30134;DHT22;16946;49.984;10.672;2022-07-18T00:01:07;15.50;99.90
30134;DHT22;16946;49.984;10.672;2022-07-18T00:01:38;15.50;99.90
30134;DHT22;16946;49.984;10.672;2022-07-18T00:02:08;15.40;99.90
30134;DHT22;16946;49.984;10.672;2022-07-18T00:02:39;15.40;99.90
30134;DHT22;16946;49.984;10.672;2022-07-18T00:03:10;15.40;99.90
30134;DHT22;16946;49.984;10.672;2022-07-18T00:03:40;15.40;99.90
30134;DHT22;16946;49.984;10.672;2022-07-18T00:04:11;15.40;99.90
30134;DHT22;16946;49.984;10.672;2022-07-18T00:04:41;15.40;99.90
30134;DHT22;16946;49.984;10.672;2022-07-18T00:05:12;15.30;99.90
30134;DHT22;16946;49.984;10.672;2022-07-18T00:05:42;15.30;99.90
30134;DHT22;16946;49.984;10.672;2022-07-18T00:06:13;15.30;99.90
30134;DHT22;16946;49.984;10.672;2022-07-18T00:06:43;15.30;99.90
30134;DHT22;16946;49.984;10.672;2022-07-18T00:07:14;15.30;99.90
30134;DHT22;16946;49.984;10.672;2022-07-18T00:07:45;15.30;99.90
30134;DHT22;16946;49.984;10.672;2022-07-18T00:08:16;15.20;99.90
30134;DHT22;16946;49.984;10.672;2022-07-18T00:08:46;15.20;99.90
30134;DHT22;16946;49.984;10.672;2022-07-18T00:09:17;15.20;99.90
30134;DHT22;16946;49.984;10.672;2022-07-18T00:09:48;15.20;99.90
30134;DHT22;16946;49.984;10.672;2022-07-18T00:10:18;15.10;99.90
30134;DHT22;16946;49.984;10.672;2022-07-18T00:10:49;15.20;99.90
30134;DHT22;16946;49.984;10.672;2022-07-18T00:11:20;15.20;99.90
30134;DHT22;16946;49.984;10.672;2022-07-18T00:11:52;15.20;99.90
30134;DHT22;16946;49.984;10.672;2022-07-18T00:12:22;15.10;99.90
30134;DHT22;16946;49.984;10.672;2022-07-18T00:12:53;15.10;99.90
30134;DHT22;16946;49.984;10.672;2022-07-18T00:13:24;15.10;99.90
30134;DHT22;16946;49.984;10.672;2022-07-18T00:13:54;15.10;99.90
30134;DHT22;16946;49.984;10.672;2022-07-18T00:14:25;15.10;99.90
30134;DHT22;16946;49.984;10.672;2022-07-18T00:14:56;15.10;99.90
30134;DHT22;16946;49.984;10.672;2022-07-18T00:15:27;15.10;99.90
30134;DHT22;16946;49.984;10.672;2022-07-18T00:15:57;15.00;99.90
30134;DHT22;16946;49.984;10.672;2022-07-18T00:16:28;15.00;99.90
30134;DHT22;16946;49.984;10.672;2022-07-18T00:16:59;15.00;99.90
30134;DHT22;16946;49.984;10.672;2022-07-18T00:17:30;15.00;99.90
30134;DHT22;16946;49.984;10.672;2022-07-18T00:18:00;14.90;99.90
30134;DHT22;16946;49.984;10.672;2022-07-18T00:18:31;14.80;99.90
30134;DHT22;16946;49.984;10.672;2022-07-18T00:19:02;14.80;99.90
30134;DHT22;16946;49.984;10.672;2022-07-18T00:19:33;14.70;99.90
30134;DHT22;16946;49.984;10.672;2022-07-18T00:20:07;14.70;99.90
30134;DHT22;16946;49.984;10.672;2022-07-18T00:20:38;14.60;99.90
30134;DHT22;16946;49.984;10.672;2022-07-18T00:21:08;14.60;99.90
30134;DHT22;16946;49.984;10.672;2022-07-18T00:21:39;14.60;99.90
30134;DHT22;16946;49.984;10.672;2022-07-18T00:22:10;14.50;99.90
30134;DHT22;16946;49.984;10.672;2022-07-18T00:22:40;14.50;99.90
30134;DHT22;16946;49.984;10.672;2022-07-18T00:23:11;14.40;99.90
30134;DHT22;16946;49.984;10.672;2022-07-18T00:23:41;14.30;99.90
30134;DHT22;16946;49.984;10.672;2022-07-18T00:24:12;14.20;99.90
30134;DHT22;16946;49.984;10.672;2022-07-18T00:24:42;14.10;99.90
30134;DHT22;16946;49.984;10.672;2022-07-18T00:25:13;14.00;99.90
30134;DHT22;16946;49.984;10.672;2022-07-18T00:25:43;13.80;99.90
30134;DHT22;16946;49.984;10.672;2022-07-18T00:26:14;13.80;99.90
30134;DHT22;16946;49.984;10.672;2022-07-18T00:26:44;13.70;99.90
30134;DHT22;16946;49.984;10.672;2022-07-18T00:27:15;13.60;99.90
30134;DHT22;16946;49.984;10.672;2022-07-18T00:27:45;13.50;99.90
30134;DHT22;16946;49.984;10.672;2022-07-18T00:28:16;13.40;99.90
30134;DHT22;16946;49.984;10.672;2022-07-18T00:28:47;13.40;99.90
30134;DHT22;16946;49.984;10.672;2022-07-18T00:29:17;13.30;99.90
30134;DHT22;16946;49.984;10.672;2022-07-18T00:29:48;13.30;99.90
30134;DHT22;16946;49.984;10.672;2022-07-18T00:30:18;13.30;99.90
30134;DHT22;16946;49.984;10.672;2022-07-18T00:30:49;13.30;99.90
30134;DHT22;16946;49.984;10.672;2022-07-18T00:31:19;13.30;99.90
30134;DHT22;16946;49.984;10.672;2022-07-18T00:31:50;13.30;99.90
30134;DHT22;16946;49.984;10.672;2022-07-18T00:32:20;13.30;99.90
30134;DHT22;16946;49.984;10.672;2022-07-18T00:32:51;13.30;99.90
30134;DHT22;16946;49.984;10.672;2022-07-18T00:33:21;13.30;99.90
30134;DHT22;16946;49.984;10.672;2022-07-18T00:33:53;13.30;99.90
30134;DHT22;16946;49.984;10.672;2022-07-18T00:34:23;13.30;99.90
30134;DHT22;16946;49.984;10.672;2022-07-18T00:34:54;13.30;99.90
30134;DHT22;16946;49.984;10.672;2022-07-18T00:35:24;13.30;99.90
30134;DHT22;16946;49.984;10.672;2022-07-18T00:35:55;13.30;99.90
30134;DHT22;16946;49.984;10.672;2022-07-18T00:36:26;13.40;99.90
30134;DHT22;16946;49.984;10.672;2022-07-18T00:36:56;13.40;99.90
30134;DHT22;16946;49.984;10.672;2022-07-18T00:37:28;13.40;99.90
30134;DHT22;16946;49.984;10.672;2022-07-18T00:37:58;13.50;99.90
30134;DHT22;16946;49.984;10.672;2022-07-18T00:38:29;13.60;99.90
30134;DHT22;16946;49.984;10.672;2022-07-18T00:38:59;13.60;99.90
30134;DHT22;16946;49.984;10.672;2022-07-18T00:39:30;13.60;99.90
30134;DHT22;16946;49.984;10.672;2022-07-18T00:40:01;13.60;99.90
30134;DHT22;16946;49.984;10.672;2022-07-18T00:40:32;13.60;99.90
30134;DHT22;16946;49.984;10.672;2022-07-18T00:41:03;13.70;99.90
30134;DHT22;16946;49.984;10.672;2022-07-18T00:41:34;13.70;99.90
30134;DHT22;16946;49.984;10.672;2022-07-18T00:42:04;13.70;99.90
30134;DHT22;16946;49.984;10.672;2022-07-18T00:42:35;13.80;99.90
30134;DHT22;16946;49.984;10.672;2022-07-18T00:43:06;13.90;99.90
30134;DHT22;16946;49.984;10.672;2022-07-18T00:43:37;13.90;99.90
30134;DHT22;16946;49.984;10.672;2022-07-18T00:44:18;13.80;99.90
30134;DHT22;16946;49.984;10.672;2022-07-18T00:44:53;13.90;99.90
30134;DHT22;16946;49.984;10.672;2022-07-18T00:45:24;13.90;99.90
30134;DHT22;16946;49.984;10.672;2022-07-18T00:45:55;13.90;99.90
30134;DHT22;16946;49.984;10.672;2022-07-18T00:46:27;13.90;99.90
30134;DHT22;16946;49.984;10.672;2022-07-18T00:47:00;13.90;99.90
30134;DHT22;16946;49.984;10.672;2022-07-18T00:47:30;14.00;99.90
30134;DHT22;16946;49.984;10.672;2022-07-18T00:48:07;14.00;99.90
30134;DHT22;16946;49.984;10.672;2022-07-18T00:48:42;14.00;99.90
30134;DHT22;16946;49.984;10.672;2022-07-18T00:49:12;14.00;99.90
30134;DHT22;16946;49.984;10.672;2022-07-18T00:49:43;14.10;99.90
30134;DHT22;16946;49.984;10.672;2022-07-18T00:50:13;14.10;99.90
30134;DHT22;16946;49.984;10.672;2022-07-18T00:50:44;14.20;99.90
30134;DHT22;16946;49.984;10.672;2022-07-18T00:51:15;14.10;99.90
30134;DHT22;16946;49.984;10.672;2022-07-18T00:51:47;14.10;99.90
30134;DHT22;16946;49.984;10.672;2022-07-18T00:52:17;14.10;99.90
30134;DHT22;16946;49.984;10.672;2022-07-18T00:52:48;14.10;99.90
30134;DHT22;16946;49.984;10.672;2022-07-18T00:53:19;14.00;99.90
30134;DHT22;16946;49.984;10.672;2022-07-18T00:53:50;13.90;99.90
30134;DHT22;16946;49.984;10.672;2022-07-18T00:54:20;13.90;99.90
30134;DHT22;16946;49.984;10.672;2022-07-18T00:54:51;13.80;99.90
30134;DHT22;16946;49.984;10.672;2022-07-18T00:55:22;13.70;99.90
30134;DHT22;16946;49.984;10.672;2022-07-18T00:55:53;13.70;99.90
30134;DHT22;16946;49.984;10.672;2022-07-18T00:56:23;13.60;99.90
30134;DHT22;16946;49.984;10.672;2022-07-18T00:56:54;13.60;99.90
30134;DHT22;16946;49.984;10.672;2022-07-18T00:57:27;13.50;99.90
30134;DHT22;16946;49.984;10.672;2022-07-18T00:57:58;13.50;99.90
30134;DHT22;16946;49.984;10.672;2022-07-18T00:58:29;13.40;99.90
30134;DHT22;16946;49.984;10.672;2022-07-18T00:59:00;13.40;99.90
30134;DHT22;16946;49.984;10.672;2022-07-18T00:59:31;13.40;99.90
30134;DHT22;16946;49.984;10.672;2022-07-18T01:00:21;13.30;99.90
30134;DHT22;16946;49.984;10.672;2022-07-18T01:01:10;13.30;99.90
30134;DHT22;16946;49.984;10.672;2022-07-18T01:01:59;13.20;99.90
30134;DHT22;16946;49.984;10.672;2022-07-18T01:02:30;13.20;99.90
30134;DHT22;16946;49.984;10.672;2022-07-18T01:03:00;13.20;99.90
30134;DHT22;16946;49.984;10.672;2022-07-18T01:03:31;13.20;99.90
30134;DHT22;16946;49.984;10.672;2022-07-18T01:04:01;13.20;99.90
30134;DHT22;16946;49.984;10.672;2022-07-18T01:04:32;13.30;99.90
30134;DHT22;16946;49.984;10.672;2022-07-18T01:05:03;13.30;99.90
30134;DHT22;16946;49.984;10.672;2022-07-18T01:05:34;13.30;99.90
30134;DHT22;16946;49.984;10.672;2022-07-18T01:06:04;13.30;99.90
30134;DHT22;16946;49.984;10.672;2022-07-18T01:06:35;13.20;99.90
30134;DHT22;16946;49.984;10.672;2022-07-18T01:07:06;13.20;99.90
30134;DHT22;16946;49.984;10.672;2022-07-18T01:07:37;13.10;99.90
30134;DHT22;16946;49.984;10.672;2022-07-18T01:08:07;13.10;99.90
30134;DHT22;16946;49.984;10.672;2022-07-18T01:08:38;13.00;99.90
30134;DHT22;16946;49.984;10.672;2022-07-18T01:09:12;13.00;99.90
30134;DHT22;16946;49.984;10.672;2022-07-18T01:09:43;12.90;99.90
30134;DHT22;16946;49.984;10.672;2022-07-18T01:10:13;12.90;99.90
30134;DHT22;16946;49.984;10.672;2022-07-18T01:10:44;12.80;99.90
30134;DHT22;16946;49.984;10.672;2022-07-18T01:11:15;12.70;99.90
30134;DHT22;16946;49.984;10.672;2022-07-18T01:11:46;12.70;99.90
30134;DHT22;16946;49.984;10.672;2022-07-18T01:12:17;12.70;99.90
30134;DHT22;16946;49.984;10.672;2022-07-18T01:12:48;12.60;99.90
30134;DHT22;16946;49.984;10.672;2022-07-18T01:13:18;12.60;99.90
30134;DHT22;16946;49.984;10.672;2022-07-18T01:13:50;12.60;99.90
30134;DHT22;16946;49.984;10.672;2022-07-18T01:14:21;12.50;99.90
30134;DHT22;16946;49.984;10.672;2022-07-18T01:14:51;12.50;99.90
30134;DHT22;16946;49.984;10.672;2022-07-18T01:15:22;12.50;99.90
30134;DHT22;16946;49.984;10.672;2022-07-18T01:15:52;12.50;99.90
30134;DHT22;16946;49.984;10.672;2022-07-18T01:16:23;12.50;99.90
30134;DHT22;16946;49.984;10.672;2022-07-18T01:16:53;12.40;99.90
30134;DHT22;16946;49.984;10.672;2022-07-18T01:17:24;12.40;99.90
30134;DHT22;16946;49.984;10.672;2022-07-18T01:17:55;12.40;99.90
30134;DHT22;16946;49.984;10.672;2022-07-18T01:18:25;12.30;99.90
30134;DHT22;16946;49.984;10.672;2022-07-18T01:18:56;12.30;99.90
30134;DHT22;16946;49.984;10.672;2022-07-18T01:19:26;12.20;99.90
30134;DHT22;16946;49.984;10.672;2022-07-18T01:19:57;12.20;99.90
30134;DHT22;16946;49.984;10.672;2022-07-18T01:20:28;12.20;99.90
30134;DHT22;16946;49.984;10.672;2022-07-18T01:20:59;12.10;99.90
30134;DHT22;16946;49.984;10.672;2022-07-18T01:21:30;12.10;99.90
30134;DHT22;16946;49.984;10.672;2022-07-18T01:22:01;12.10;99.90
30134;DHT22;16946;49.984;10.672;2022-07-18T01:22:32;12.10;99.90
30134;DHT22;16946;49.984;10.672;2022-07-18T01:23:04;12.10;99.90
30134;DHT22;16946;49.984;10.672;2022-07-18T01:23:34;12.20;99.90
30134;DHT22;16946;49.984;10.672;2022-07-18T01:24:05;12.20;99.90
30134;DHT22;16946;49.984;10.672;2022-07-18T01:24:37;12.20;99.90
30134;DHT22;16946;49.984;10.672;2022-07-18T01:25:11;12.20;99.90
30134;DHT22;16946;49.984;10.672;2022-07-18T01:25:42;12.20;99.90
30134;DHT22;16946;49.984;10.672;2022-07-18T01:26:15;12.20;99.90
30134;DHT22;16946;49.984;10.672;2022-07-18T01:26:46;12.20;99.90
30134;DHT22;16946;49.984;10.672;2022-07-18T01:27:19;12.30;99.90
30134;DHT22;16946;49.984;10.672;2022-07-18T01:27:49;12.30;99.90
30134;DHT22;16946;49.984;10.672;2022-07-18T01:28:20;12.30;99.90
30134;DHT22;16946;49.984;10.672;2022-07-18T01:28:51;12.40;99.90
30134;DHT22;16946;49.984;10.672;2022-07-18T01:29:21;12.40;99.90
30134;DHT22;16946;49.984;10.672;2022-07-18T01:29:52;12.50;99.90
30134;DHT22;16946;49.984;10.672;2022-07-18T01:30:24;12.50;99.90
30134;DHT22;16946;49.984;10.672;2022-07-18T01:30:55;12.40;99.90
30134;DHT22;16946;49.984;10.672;2022-07-18T01:31:25;12.50;99.90
30134;DHT22;16946;49.984;10.672;2022-07-18T01:31:56;12.50;99.90
30134;DHT22;16946;49.984;10.672;2022-07-18T01:32:27;12.50;99.90
30134;DHT22;16946;49.984;10.672;2022-07-18T01:32:59;12.50;99.90
30134;DHT22;16946;49.984;10.672;2022-07-18T01:33:32;12.50;99.90
30134;DHT22;16946;49.984;10.672;2022-07-18T01:34:03;12.60;99.90
30134;DHT22;16946;49.984;10.672;2022-07-18T01:34:34;12.60;99.90
30134;DHT22;16946;49.984;10.672;2022-07-18T01:35:05;12.70;99.90
30134;DHT22;16946;49.984;10.672;2022-07-18T01:35:35;12.60;99.90
30134;DHT22;16946;49.984;10.672;2022-07-18T01:36:07;12.60;99.90
30134;DHT22;16946;49.984;10.672;2022-07-18T01:36:38;12.60;99.90
30134;DHT22;16946;49.984;10.672;2022-07-18T01:37:09;12.60;99.90
30134;DHT22;16946;49.984;10.672;2022-07-18T01:37:40;12.50;99.90
30134;DHT22;16946;49.984;10.672;2022-07-18T01:38:10;12.40;99.90
30134;DHT22;16946;49.984;10.672;2022-07-18T01:38:41;12.40;99.90
30134;DHT22;16946;49.984;10.672;2022-07-18T01:39:12;12.30;99.90
30134;DHT22;16946;49.984;10.672;2022-07-18T01:39:43;12.30;99.90
30134;DHT22;16946;49.984;10.672;2022-07-18T01:40:13;12.20;99.90
30134;DHT22;16946;49.984;10.672;2022-07-18T01:40:44;12.10;99.90
30134;DHT22;16946;49.984;10.672;2022-07-18T01:41:15;12.10;99.90
30134;DHT22;16946;49.984;10.672;2022-07-18T01:41:45;12.10;99.90
30134;DHT22;16946;49.984;10.672;2022-07-18T01:42:16;12.10;99.90
30134;DHT22;16946;49.984;10.672;2022-07-18T01:42:47;12.00;99.90
30134;DHT22;16946;49.984;10.672;2022-07-18T01:43:18;12.10;99.90
30134;DHT22;16946;49.984;10.672;2022-07-18T01:43:48;12.10;99.90
30134;DHT22;16946;49.984;10.672;2022-07-18T01:44:19;12.10;99.90
30134;DHT22;16946;49.984;10.672;2022-07-18T01:44:49;12.10;99.90
30134;DHT22;16946;49.984;10.672;2022-07-18T01:45:20;12.10;99.90
30134;DHT22;16946;49.984;10.672;2022-07-18T01:45:51;12.10;99.90
30134;DHT22;16946;49.984;10.672;2022-07-18T01:46:22;12.10;99.90
30134;DHT22;16946;49.984;10.672;2022-07-18T01:46:53;12.20;99.90
30134;DHT22;16946;49.984;10.672;2022-07-18T01:47:23;12.20;99.90
30134;DHT22;16946;49.984;10.672;2022-07-18T01:47:54;12.10;99.90
30134;DHT22;16946;49.984;10.672;2022-07-18T01:48:24;12.10;99.90
30134;DHT22;16946;49.984;10.672;2022-07-18T01:48:55;12.10;99.90
30134;DHT22;16946;49.984;10.672;2022-07-18T01:49:26;12.10;99.90
30134;DHT22;16946;49.984;10.672;2022-07-18T01:49:56;12.10;99.90
30134;DHT22;16946;49.984;10.672;2022-07-18T01:50:27;12.10;99.90
30134;DHT22;16946;49.984;10.672;2022-07-18T01:50:58;12.10;99.90
30134;DHT22;16946;49.984;10.672;2022-07-18T01:51:28;12.10;99.90
30134;DHT22;16946;49.984;10.672;2022-07-18T01:51:59;12.10;99.90
30134;DHT22;16946;49.984;10.672;2022-07-18T01:52:30;12.00;99.90
30134;DHT22;16946;49.984;10.672;2022-07-18T01:53:01;12.00;99.90
30134;DHT22;16946;49.984;10.672;2022-07-18T01:53:31;12.00;99.90
30134;DHT22;16946;49.984;10.672;2022-07-18T01:54:02;12.00;99.90
30134;DHT22;16946;49.984;10.672;2022-07-18T01:54:34;12.00;99.90
30134;DHT22;16946;49.984;10.672;2022-07-18T01:55:06;12.00;99.90
30134;DHT22;16946;49.984;10.672;2022-07-18T01:55:37;12.00;99.90
30134;DHT22;16946;49.984;10.672;2022-07-18T01:56:08;12.10;99.90
30134;DHT22;16946;49.984;10.672;2022-07-18T01:56:42;12.10;99.90
30134;DHT22;16946;49.984;10.672;2022-07-18T01:57:12;12.10;99.90
30134;DHT22;16946;49.984;10.672;2022-07-18T01:57:43;12.10;99.90
30134;DHT22;16946;49.984;10.672;2022-07-18T01:58:13;12.10;99.90
30134;DHT22;16946;49.984;10.672;2022-07-18T01:58:44;12.10;99.90
30134;DHT22;16946;49.984;10.672;2022-07-18T01:59:14;12.10;99.90
30134;DHT22;16946;49.984;10.672;2022-07-18T01:59:45;12.20;99.90
30134;DHT22;16946;49.984;10.672;2022-07-18T02:00:15;12.10;99.90
30134;DHT22;16946;49.984;10.672;2022-07-18T02:00:46;12.10;99.90
30134;DHT22;16946;49.984;10.672;2022-07-18T02:01:16;12.00;99.90
30134;DHT22;16946;49.984;10.672;2022-07-18T02:01:47;12.10;99.90
30134;DHT22;16946;49.984;10.672;2022-07-18T02:02:18;12.00;99.90
30134;DHT22;16946;49.984;10.672;2022-07-18T02:02:48;12.00;99.90
30134;DHT22;16946;49.984;10.672;2022-07-18T02:03:19;12.10;99.90
30134;DHT22;16946;49.984;10.672;2022-07-18T02:03:49;12.00;99.90
30134;DHT22;16946;49.984;10.672;2022-07-18T02:04:20;12.00;99.90
30134;DHT22;16946;49.984;10.672;2022-07-18T02:05:12;12.10;99.90
30134;DHT22;16946;49.984;10.672;2022-07-18T02:05:43;12.10;99.90
30134;DHT22;16946;49.984;10.672;2022-07-18T02:06:13;12.10;99.90
30134;DHT22;16946;49.984;10.672;2022-07-18T02:06:44;12.10;99.90
30134;DHT22;16946;49.984;10.672;2022-07-18T02:07:15;12.20;99.90
30134;DHT22;16946;49.984;10.672;2022-07-18T02:07:45;12.20;99.90
30134;DHT22;16946;49.984;10.672;2022-07-18T02:08:16;12.10;99.90
30134;DHT22;16946;49.984;10.672;2022-07-18T02:08:46;12.10;99.90
30134;DHT22;16946;49.984;10.672;2022-07-18T02:09:17;12.00;99.90
30134;DHT22;16946;49.984;10.672;2022-07-18T02:09:47;11.90;99.90
30134;DHT22;16946;49.984;10.672;2022-07-18T02:10:20;11.90;99.90
30134;DHT22;16946;49.984;10.672;2022-07-18T02:10:51;11.90;99.90
30134;DHT22;16946;49.984;10.672;2022-07-18T02:11:21;11.90;99.90
30134;DHT22;16946;49.984;10.672;2022-07-18T02:11:52;11.90;99.90
30134;DHT22;16946;49.984;10.672;2022-07-18T02:12:23;11.90;99.90
30134;DHT22;16946;49.984;10.672;2022-07-18T02:12:54;11.90;99.90
30134;DHT22;16946;49.984;10.672;2022-07-18T02:13:25;12.00;99.90
30134;DHT22;16946;49.984;10.672;2022-07-18T02:13:56;12.00;99.90
30134;DHT22;16946;49.984;10.672;2022-07-18T02:14:26;12.00;99.90
30134;DHT22;16946;49.984;10.672;2022-07-18T02:14:57;12.00;99.90
30134;DHT22;16946;49.984;10.672;2022-07-18T02:15:27;12.00;99.90
30134;DHT22;16946;49.984;10.672;2022-07-18T02:15:58;12.00;99.90
30134;DHT22;16946;49.984;10.672;2022-07-18T02:16:28;12.00;99.90
30134;DHT22;16946;49.984;10.672;2022-07-18T02:16:59;12.10;99.90
30134;DHT22;16946;49.984;10.672;2022-07-18T02:17:30;12.10;99.90
30134;DHT22;16946;49.984;10.672;2022-07-18T02:18:00;12.10;99.90
30134;DHT22;16946;49.984;10.672;2022-07-18T02:18:31;12.10;99.90
30134;DHT22;16946;49.984;10.672;2022-07-18T02:19:02;12.10;99.90
30134;DHT22;16946;49.984;10.672;2022-07-18T02:19:33;12.10;99.90
30134;DHT22;16946;49.984;10.672;2022-07-18T02:20:08;12.00;99.90
30134;DHT22;16946;49.984;10.672;2022-07-18T02:20:39;12.10;99.90
30134;DHT22;16946;49.984;10.672;2022-07-18T02:21:10;12.10;99.90
30134;DHT22;16946;49.984;10.672;2022-07-18T02:21:41;12.00;99.90
30134;DHT22;16946;49.984;10.672;2022-07-18T02:22:12;12.00;99.90
30134;DHT22;16946;49.984;10.672;2022-07-18T02:22:42;12.00;99.90
30134;DHT22;16946;49.984;10.672;2022-07-18T02:23:13;12.00;99.90
30134;DHT22;16946;49.984;10.672;2022-07-18T02:23:43;12.00;99.90
30134;DHT22;16946;49.984;10.672;2022-07-18T02:24:14;12.10;99.90
30134;DHT22;16946;49.984;10.672;2022-07-18T02:24:45;12.10;99.90
30134;DHT22;16946;49.984;10.672;2022-07-18T02:25:15;12.10;99.90
30134;DHT22;16946;49.984;10.672;2022-07-18T02:25:46;12.10;99.90
30134;DHT22;16946;49.984;10.672;2022-07-18T02:26:17;12.20;99.90
30134;DHT22;16946;49.984;10.672;2022-07-18T02:26:48;12.20;99.90
30134;DHT22;16946;49.984;10.672;2022-07-18T02:27:19;12.20;99.90
30134;DHT22;16946;49.984;10.672;2022-07-18T02:27:49;12.30;99.90
30134;DHT22;16946;49.984;10.672;2022-07-18T02:28:20;12.30;99.90
30134;DHT22;16946;49.984;10.672;2022-07-18T02:28:51;12.30;99.90
30134;DHT22;16946;49.984;10.672;2022-07-18T02:29:21;12.30;99.90
30134;DHT22;16946;49.984;10.672;2022-07-18T02:29:52;12.30;99.90
30134;DHT22;16946;49.984;10.672;2022-07-18T02:30:22;12.30;99.90
30134;DHT22;16946;49.984;10.672;2022-07-18T02:30:53;12.30;99.90
30134;DHT22;16946;49.984;10.672;2022-07-18T02:31:24;12.20;99.90
30134;DHT22;16946;49.984;10.672;2022-07-18T02:31:54;12.20;99.90
30134;DHT22;16946;49.984;10.672;2022-07-18T02:32:25;12.20;99.90
30134;DHT22;16946;49.984;10.672;2022-07-18T02:32:56;12.20;99.90
30134;DHT22;16946;49.984;10.672;2022-07-18T02:33:27;12.10;99.90
30134;DHT22;16946;49.984;10.672;2022-07-18T02:33:57;12.10;99.90
30134;DHT22;16946;49.984;10.672;2022-07-18T02:34:28;12.10;99.90
30134;DHT22;16946;49.984;10.672;2022-07-18T02:34:58;12.00;99.90
30134;DHT22;16946;49.984;10.672;2022-07-18T02:35:29;12.00;99.90
30134;DHT22;16946;49.984;10.672;2022-07-18T02:35:59;12.00;99.90
30134;DHT22;16946;49.984;10.672;2022-07-18T02:36:30;12.00;99.90
30134;DHT22;16946;49.984;10.672;2022-07-18T02:37:01;11.90;99.90
30134;DHT22;16946;49.984;10.672;2022-07-18T02:37:31;11.90;99.90
30134;DHT22;16946;49.984;10.672;2022-07-18T02:38:02;11.80;99.90
30134;DHT22;16946;49.984;10.672;2022-07-18T02:38:33;11.80;99.90
30134;DHT22;16946;49.984;10.672;2022-07-18T02:39:04;11.80;99.90
30134;DHT22;16946;49.984;10.672;2022-07-18T02:39:35;11.80;99.90
30134;DHT22;16946;49.984;10.672;2022-07-18T02:40:08;11.70;99.90
30134;DHT22;16946;49.984;10.672;2022-07-18T02:40:39;11.70;99.90
30134;DHT22;16946;49.984;10.672;2022-07-18T02:41:09;11.60;99.90
30134;DHT22;16946;49.984;10.672;2022-07-18T02:41:40;11.50;99.90
30134;DHT22;16946;49.984;10.672;2022-07-18T02:42:10;11.50;99.90
30134;DHT22;16946;49.984;10.672;2022-07-18T02:42:41;11.50;99.90
30134;DHT22;16946;49.984;10.672;2022-07-18T02:43:11;11.40;99.90
30134;DHT22;16946;49.984;10.672;2022-07-18T02:43:42;11.40;99.90
30134;DHT22;16946;49.984;10.672;2022-07-18T02:44:12;11.30;99.90
30134;DHT22;16946;49.984;10.672;2022-07-18T02:44:43;11.30;99.90
30134;DHT22;16946;49.984;10.672;2022-07-18T02:45:14;11.20;99.90
30134;DHT22;16946;49.984;10.672;2022-07-18T02:45:44;11.20;99.90
30134;DHT22;16946;49.984;10.672;2022-07-18T02:46:15;11.20;99.90
30134;DHT22;16946;49.984;10.672;2022-07-18T02:46:45;11.10;99.90
30134;DHT22;16946;49.984;10.672;2022-07-18T02:47:16;11.10;99.90
30134;DHT22;16946;49.984;10.672;2022-07-18T02:47:46;11.10;99.90
30134;DHT22;16946;49.984;10.672;2022-07-18T02:48:17;11.10;99.90
30134;DHT22;16946;49.984;10.672;2022-07-18T02:48:47;11.10;99.90
30134;DHT22;16946;49.984;10.672;2022-07-18T02:49:18;11.10;99.90
30134;DHT22;16946;49.984;10.672;2022-07-18T02:49:57;11.10;99.90
30134;DHT22;16946;49.984;10.672;2022-07-18T02:50:28;11.10;99.90
30134;DHT22;16946;49.984;10.672;2022-07-18T02:50:58;11.20;99.90
30134;DHT22;16946;49.984;10.672;2022-07-18T02:51:29;11.10;99.90
30134;DHT22;16946;49.984;10.672;2022-07-18T02:52:02;11.10;99.90
30134;DHT22;16946;49.984;10.672;2022-07-18T02:52:34;11.10;99.90
30134;DHT22;16946;49.984;10.672;2022-07-18T02:53:05;11.10;99.90
30134;DHT22;16946;49.984;10.672;2022-07-18T02:53:35;11.10;99.90
30134;DHT22;16946;49.984;10.672;2022-07-18T02:54:06;11.00;99.90
30134;DHT22;16946;49.984;10.672;2022-07-18T02:54:37;11.00;99.90
30134;DHT22;16946;49.984;10.672;2022-07-18T02:55:09;11.10;99.90
30134;DHT22;16946;49.984;10.672;2022-07-18T02:55:39;11.10;99.90
30134;DHT22;16946;49.984;10.672;2022-07-18T02:56:10;11.10;99.90
30134;DHT22;16946;49.984;10.672;2022-07-18T02:56:40;11.00;99.90
30134;DHT22;16946;49.984;10.672;2022-07-18T02:57:11;11.00;99.90
30134;DHT22;16946;49.984;10.672;2022-07-18T02:57:42;11.00;99.90
30134;DHT22;16946;49.984;10.672;2022-07-18T02:58:12;11.00;99.90
30134;DHT22;16946;49.984;10.672;2022-07-18T02:58:43;11.00;99.90
30134;DHT22;16946;49.984;10.672;2022-07-18T02:59:13;11.00;99.90
30134;DHT22;16946;49.984;10.672;2022-07-18T02:59:44;11.00;99.90
30134;DHT22;16946;49.984;10.672;2022-07-18T03:00:16;10.90;99.90
30134;DHT22;16946;49.984;10.672;2022-07-18T03:00:47;10.90;99.90
30134;DHT22;16946;49.984;10.672;2022-07-18T03:01:17;10.90;99.90
30134;DHT22;16946;49.984;10.672;2022-07-18T03:01:48;10.90;99.90
30134;DHT22;16946;49.984;10.672;2022-07-18T03:02:22;10.90;99.90
30134;DHT22;16946;49.984;10.672;2022-07-18T03:02:52;10.90;99.90
30134;DHT22;16946;49.984;10.672;2022-07-18T03:03:23;10.80;99.90
30134;DHT22;16946;49.984;10.672;2022-07-18T03:03:54;10.80;99.90
30134;DHT22;16946;49.984;10.672;2022-07-18T03:04:26;10.70;99.90
30134;DHT22;16946;49.984;10.672;2022-07-18T03:04:57;10.70;99.90
30134;DHT22;16946;49.984;10.672;2022-07-18T03:05:27;10.70;99.90
30134;DHT22;16946;49.984;10.672;2022-07-18T03:05:58;10.70;99.90
30134;DHT22;16946;49.984;10.672;2022-07-18T03:06:28;10.70;99.90
30134;DHT22;16946;49.984;10.672;2022-07-18T03:06:59;10.70;99.90
30134;DHT22;16946;49.984;10.672;2022-07-18T03:07:31;10.70;99.90
30134;DHT22;16946;49.984;10.672;2022-07-18T03:08:02;10.80;99.90
30134;DHT22;16946;49.984;10.672;2022-07-18T03:08:32;10.80;99.90
30134;DHT22;16946;49.984;10.672;2022-07-18T03:09:04;10.80;99.90
30134;DHT22;16946;49.984;10.672;2022-07-18T03:09:35;10.80;99.90
30134;DHT22;16946;49.984;10.672;2022-07-18T03:10:06;10.80;99.90
30134;DHT22;16946;49.984;10.672;2022-07-18T03:10:37;10.80;99.90
30134;DHT22;16946;49.984;10.672;2022-07-18T03:11:07;10.80;99.90
30134;DHT22;16946;49.984;10.672;2022-07-18T03:11:38;10.80;99.90
30134;DHT22;16946;49.984;10.672;2022-07-18T03:12:08;10.90;99.90
30134;DHT22;16946;49.984;10.672;2022-07-18T03:12:41;10.90;99.90
30134;DHT22;16946;49.984;10.672;2022-07-18T03:13:12;10.90;99.90